Adair Village, Oregon
Current Conditions -  °F | °C
As of 10:35 AM on Sunday 23 Nov 2014 (Local Time) from KCVO Reporting Station
Scattered Clouds Scattered Clouds  
Wind Chill: 42°   Ceiling: Unl
Heat Index: 48°   Visibility: 10mi
Dew Point: 45°   Wind: 17mph
Humidity: 87%   Direction: 180°S
Pressure: 30.34"   Gusts: 23mph
Location:  44.6364°N, 123.28°W
Report Text: KCVO 231835Z AUTO 18015G20KT 10SM SCT034 09/07 A3034 RMK AO1
Loading
Personal Weather Stations






























Interactive Weather Map New forecast layout! Learn more

10-Day Weather Forecast

Advertisements
Track Severe Weather on mobile